Time;durP1;ratioP1;P1;durP2;ratioP2;P2;SDS_P1;SDS_P2;PMS_P1;PMS_P2;Temp;Humidity;BMP_temperature;BMP_pressure;BME280_temperature;BME280_humidity;BME280_pressure;Samples;Min_cycle;Max_cycle;Signal;HPM_P1;HPM_P2
2022/03/05 00:02:16;;;;;;;2.85;1.58;;;;;;;0.03;100.00;99028.34;5111945;28;20138;-63
2022/03/05 00:04:43;;;;;;;1.38;1.20;;;;;;;0.09;100.00;99041.44;5112514;28;20157;-63
2022/03/05 00:07:09;;;;;;;3.67;1.55;;;;;;;0.13;100.00;99020.06;5111572;28;20094;-63
2022/03/05 00:09:35;;;;;;;4.03;1.80;;;;;;;0.06;100.00;99006.19;5112091;28;20464;-63
2022/03/05 00:12:02;;;;;;;2.15;1.35;;;;;;;0.02;100.00;99019.47;5111996;28;20490;-63
2022/03/05 00:14:28;;;;;;;4.10;1.52;;;;;;;0.09;100.00;99043.34;5111995;28;20058;-63
2022/03/05 00:16:55;;;;;;;1.50;1.40;;;;;;;0.10;100.00;99023.38;5112046;28;20396;-63
2022/03/05 00:19:21;;;;;;;5.45;1.70;;;;;;;0.08;100.00;99020.97;5111831;28;20077;-63
2022/03/05 00:21:48;;;;;;;1.38;1.23;;;;;;;0.06;100.00;99025.06;5111945;28;20109;-63
2022/03/05 00:24:14;;;;;;;2.33;1.70;;;;;;;0.15;100.00;99037.56;5111861;28;20109;-63
2022/03/05 00:26:40;;;;;;;1.65;1.20;;;;;;;0.11;100.00;99016.91;5111846;28;20050;-63
2022/03/05 00:29:07;;;;;;;6.20;1.52;;;;;;;0.04;100.00;98994.94;5111762;28;20052;-63
2022/03/05 00:31:34;;;;;;;2.85;1.48;;;;;;;0.03;100.00;99010.28;5111968;28;20491;-63
2022/03/05 00:34:00;;;;;;;3.35;1.50;;;;;;;-0.05;100.00;99013.69;5110541;28;20058;-63
2022/03/05 00:36:26;;;;;;;2.75;1.48;;;;;;;-0.03;100.00;99033.06;5111698;28;20047;-63
2022/03/05 00:38:53;;;;;;;1.67;1.30;;;;;;;-0.03;100.00;99055.41;5111578;28;20052;-63
2022/03/05 00:41:19;;;;;;;1.40;1.30;;;;;;;0.04;100.00;99081.97;5111592;28;20048;-63
2022/03/05 00:43:46;;;;;;;4.43;1.50;;;;;;;0.05;100.00;99064.69;5111357;28;20057;-63
2022/03/05 00:46:12;;;;;;;1.98;1.75;;;;;;;0.05;100.00;99061.22;5111634;28;20430;-63
2022/03/05 00:48:38;;;;;;;2.17;1.35;;;;;;;0.08;100.00;99063.31;5111813;28;20047;-63
2022/03/05 00:51:05;;;;;;;2.83;1.35;;;;;;;0.03;100.00;99036.44;5111629;28;20051;-63
2022/03/05 00:53:31;;;;;;;1.98;1.40;;;;;;;-0.05;100.00;99033.34;5111458;28;20047;-63
2022/03/05 00:55:58;;;;;;;6.13;1.60;;;;;;;-0.06;100.00;99045.22;5111326;28;20100;-63
2022/03/05 00:58:24;;;;;;;1.52;1.40;;;;;;;-0.20;100.00;99044.41;5111246;28;20057;-63
2022/03/05 01:00:52;;;;;;;1.80;1.50;;;;;;;-0.19;100.00;99067.56;5111051;28;20408;-63
2022/03/05 01:03:18;;;;;;;3.42;1.60;;;;;;;-0.19;100.00;99081.03;5111505;28;20051;-63
2022/03/05 01:05:45;;;;;;;4.10;1.38;;;;;;;-0.13;100.00;99097.91;5110540;28;20100;-63
2022/03/05 01:08:12;;;;;;;4.95;1.63;;;;;;;-0.10;100.00;99097.31;5111143;28;20081;-63
2022/03/05 01:10:38;;;;;;;2.10;1.60;;;;;;;-0.11;100.00;99085.72;5111283;28;20052;-63
2022/03/05 01:13:05;;;;;;;2.20;1.15;;;;;;;-0.08;100.00;99081.66;5111299;28;20053;-63
2022/03/05 01:15:31;;;;;;;2.47;1.25;;;;;;;-0.14;100.00;99066.66;5110988;28;20047;-63
2022/03/05 01:17:58;;;;;;;1.73;1.20;;;;;;;-0.12;100.00;99080.66;5111076;28;20065;-63
2022/03/05 01:20:24;;;;;;;3.25;1.58;;;;;;;-0.10;100.00;99073.06;5110914;28;20094;-63
2022/03/05 01:22:50;;;;;;;1.25;1.20;;;;;;;-0.05;100.00;99070.28;5110705;28;20051;-63
2022/03/05 01:25:17;;;;;;;2.20;1.60;;;;;;;0.01;100.00;99052.13;5110692;28;20101;-63
2022/03/05 01:27:43;;;;;;;4.35;1.42;;;;;;;0.01;100.00;99047.53;5110742;28;20052;-63
2022/03/05 01:30:12;;;;;;;1.67;1.50;;;;;;;0.06;100.00;99035.84;5111146;28;20049;-63
2022/03/05 01:32:38;;;;;;;2.40;1.52;;;;;;;0.08;100.00;99030.97;5110924;28;20056;-63
2022/03/05 01:35:05;;;;;;;1.50;1.40;;;;;;;0.05;100.00;99020.78;5110754;28;20048;-63
2022/03/05 01:37:32;;;;;;;6.88;1.80;;;;;;;0.02;100.00;98989.03;5110787;28;20142;-63
2022/03/05 01:39:58;;;;;;;2.35;1.42;;;;;;;-0.04;100.00;98959.47;5110735;28;20527;-63
2022/03/05 01:42:25;;;;;;;9.75;1.55;;;;;;;-0.03;100.00;98936.03;5110588;28;20069;-63
2022/03/05 01:44:51;;;;;;;1.67;1.42;;;;;;;-0.06;100.00;98923.97;5110333;28;20052;-63
2022/03/05 01:47:19;;;;;;;2.78;1.17;;;;;;;-0.12;100.00;98908.19;5110466;28;20058;-63
2022/03/05 01:49:45;;;;;;;2.97;1.33;;;;;;;-0.13;100.00;98931.66;5110565;28;20051;-63
2022/03/05 01:52:12;;;;;;;1.58;1.20;;;;;;;-0.11;100.00;98928.66;5110563;28;20048;-63
2022/03/05 01:54:40;;;;;;;2.25;1.55;;;;;;;-0.24;100.00;98889.81;5110375;28;20055;-63
2022/03/05 01:57:06;;;;;;;1.83;1.20;;;;;;;-0.19;100.00;98916.69;5110602;28;20056;-63
2022/03/05 01:59:34;;;;;;;1.60;1.40;;;;;;;-0.16;100.00;98915.28;5110271;28;20059;-63
2022/03/05 02:02:00;;;;;;;1.45;1.35;;;;;;;-0.17;100.00;98908.28;5110418;28;20051;-63
2022/03/05 02:04:27;;;;;;;2.25;1.17;;;;;;;-0.28;100.00;98895.03;5110349;28;20055;-63
2022/03/05 02:06:53;;;;;;;1.67;1.35;;;;;;;-0.27;100.00;98895.81;5109830;28;20048;-63
2022/03/05 02:09:20;;;;;;;1.52;1.35;;;;;;;-0.32;100.00;98890.53;5110239;28;20051;-63
2022/03/05 02:11:46;;;;;;;2.83;1.38;;;;;;;-0.37;100.00;98894.13;5110131;28;20047;-63
2022/03/05 02:14:16;;;;;;;1.98;1.20;;;;;;;-0.27;100.00;98876.97;5110195;28;20101;-63
2022/03/05 02:16:42;;;;;;;3.33;1.55;;;;;;;-0.40;100.00;98861.59;5110077;28;20054;-63
2022/03/05 02:19:09;;;;;;;1.83;1.13;;;;;;;-0.42;100.00;98869.19;5110001;28;20047;-62
2022/03/05 02:21:36;;;;;;;1.98;1.35;;;;;;;-0.29;100.00;98881.88;5109912;28;20052;-63
2022/03/05 02:24:03;;;;;;;3.78;1.30;;;;;;;-0.29;100.00;98858.41;5110464;28;20044;-62
2022/03/05 02:26:29;;;;;;;2.30;1.20;;;;;;;-0.24;100.00;98844.03;5109885;28;20048;-63
2022/03/05 02:28:56;;;;;;;1.20;1.10;;;;;;;-0.26;100.00;98830.09;5110185;28;20052;-63
2022/03/05 02:31:22;;;;;;;3.90;1.10;;;;;;;-0.33;100.00;98802.75;5109745;28;20101;-63
2022/03/05 02:33:52;;;;;;;2.17;1.30;;;;;;;-0.34;100.00;98798.44;5109955;28;20051;-63
2022/03/05 02:36:19;;;;;;;1.65;1.00;;;;;;;-0.33;100.00;98792.00;5109828;28;20048;-63
2022/03/05 02:38:46;;;;;;;2.35;1.30;;;;;;;-0.32;100.00;98780.91;5109792;28;20047;-63
2022/03/05 02:41:12;;;;;;;1.13;1.02;;;;;;;-0.34;100.00;98779.59;5109954;28;20050;-62
2022/03/05 02:43:38;;;;;;;1.33;1.17;;;;;;;-0.39;100.00;98756.28;5109670;28;20503;-63
2022/03/05 02:46:04;;;;;;;2.05;1.10;;;;;;;-0.46;100.00;98744.31;5109641;28;20507;-63
2022/03/05 02:48:33;;;;;;;2.10;1.40;;;;;;;-0.45;100.00;98740.53;5109686;28;20056;-63
2022/03/05 02:50:59;;;;;;;1.85;1.23;;;;;;;-0.42;100.00;98746.09;5109698;28;20146;-63
2022/03/05 02:53:26;;;;;;;1.98;1.30;;;;;;;-0.30;100.00;98764.41;5109542;28;20052;-63
2022/03/05 02:55:52;;;;;;;1.30;1.20;;;;;;;-0.45;100.00;98749.41;5110484;28;20528;-63
2022/03/05 02:58:19;;;;;;;2.22;1.23;;;;;;;-0.50;100.00;98739.53;5112984;28;20560;-63
2022/03/05 03:00:45;;;;;;;1.67;1.23;;;;;;;-0.44;100.00;98753.69;5113159;28;20507;-63
2022/03/05 03:03:11;;;;;;;2.20;1.13;;;;;;;-0.39;100.00;98763.56;5113038;28;20470;-63
2022/03/05 03:05:38;;;;;;;1.33;1.23;;;;;;;-0.43;100.00;98765.25;5112625;28;20446;-63
2022/03/05 03:08:05;;;;;;;2.83;1.63;;;;;;;-0.43;100.00;98759.84;5113098;28;20051;-63
2022/03/05 03:10:31;;;;;;;1.58;1.15;;;;;;;-0.54;100.00;98760.06;5112824;28;20048;-63
2022/03/05 03:12:58;;;;;;;1.70;1.30;;;;;;;-0.46;100.00;98768.56;5112958;28;20092;-63
2022/03/05 03:15:25;;;;;;;2.50;1.60;;;;;;;-0.33;100.00;98803.56;5112819;28;20058;-63
2022/03/05 03:17:52;;;;;;;2.85;1.50;;;;;;;-0.39;100.00;98774.34;5112978;28;20507;-63
2022/03/05 03:20:20;;;;;;;1.38;1.27;;;;;;;-0.42;100.00;98759.56;5112670;28;20052;-63
2022/03/05 03:22:47;;;;;;;1.95;1.25;;;;;;;-0.48;100.00;98745.41;5113138;28;20051;-63
2022/03/05 03:25:13;;;;;;;1.85;1.20;;;;;;;-0.60;100.00;98734.38;5112702;28;20048;-63
2022/03/05 03:27:40;;;;;;;2.33;1.30;;;;;;;-0.60;100.00;98738.94;5112735;28;20503;-63
2022/03/05 03:30:09;;;;;;;1.30;1.20;;;;;;;-0.59;100.00;98740.56;5112777;28;20054;-63
2022/03/05 03:32:36;;;;;;;1.27;1.08;;;;;;;-0.52;100.00;98740.94;5112527;28;20058;-62
2022/03/05 03:35:02;;;;;;;2.00;1.17;;;;;;;-0.45;100.00;98740.53;5112633;28;20056;-63
2022/03/05 03:37:29;;;;;;;3.95;1.55;;;;;;;-0.55;100.00;98730.78;5112725;28;20094;-63
2022/03/05 03:39:56;;;;;;;2.03;1.15;;;;;;;-0.58;100.00;98732.16;5112619;28;20091;-63
2022/03/05 03:42:22;;;;;;;1.40;1.13;;;;;;;-0.53;100.00;98742.03;5112216;28;20550;-63
2022/03/05 03:44:49;;;;;;;2.05;1.40;;;;;;;-0.59;100.00;98735.16;5112557;28;20588;-63
2022/03/05 03:47:16;;;;;;;1.52;1.00;;;;;;;-0.61;100.00;98742.75;5112282;28;20048;-62
2022/03/05 03:49:42;;;;;;;2.25;1.33;;;;;;;-0.62;100.00;98735.78;5112858;28;20051;-63
2022/03/05 03:52:08;;;;;;;1.75;1.05;;;;;;;-0.67;100.00;98742.03;5112297;28;20055;-62
2022/03/05 03:54:34;;;;;;;1.77;1.08;;;;;;;-0.63;100.00;98751.13;5112374;28;20461;-63
2022/03/05 03:57:01;;;;;;;1.25;1.05;;;;;;;-0.68;100.00;98743.16;5112206;28;20052;-63
2022/03/05 03:59:27;;;;;;;4.68;1.30;;;;;;;-0.64;100.00;98752.22;5112281;28;20419;-63
2022/03/05 04:01:53;;;;;;;2.72;1.20;;;;;;;-0.63;100.00;98743.06;5112339;28;20054;-63
2022/03/05 04:04:20;;;;;;;4.05;1.30;;;;;;;-0.56;100.00;98745.34;5112071;28;20529;-63
2022/03/05 04:09:31;;;;;;;1.80;1.25;;;;;;;-0.62;100.00;98751.94;5111610;28;20046;-63
2022/03/05 04:11:57;;;;;;;2.80;1.10;;;;;;;-0.56;100.00;98766.88;5112012;28;20044;-63
2022/03/05 04:14:23;;;;;;;1.75;1.40;;;;;;;-0.58;100.00;98764.47;5111805;28;20506;-63
2022/03/05 04:16:49;;;;;;;2.17;1.23;;;;;;;-0.57;100.00;98776.81;5112226;28;20097;-63
2022/03/05 04:19:16;;;;;;;1.73;1.02;;;;;;;-0.61;100.00;98770.44;5111927;28;20113;-62
2022/03/05 04:21:43;;;;;;;2.20;1.13;;;;;;;-0.57;100.00;98773.34;5112021;28;20056;-62
2022/03/05 04:24:09;;;;;;;1.30;1.20;;;;;;;-0.60;100.00;98784.72;5111673;28;20067;-63
2022/03/05 04:26:35;;;;;;;2.20;1.35;;;;;;;-0.61;100.00;98778.53;5111795;28;20096;-63
2022/03/05 04:29:02;;;;;;;1.85;1.13;;;;;;;-0.61;100.00;98785.81;5111839;28;20051;-62
2022/03/05 04:31:28;;;;;;;2.03;1.33;;;;;;;-0.56;100.00;98794.59;5111698;28;20048;-63
2022/03/05 04:33:54;;;;;;;4.18;1.30;;;;;;;-0.56;100.00;98786.53;5111754;28;20051;-63
2022/03/05 04:36:20;;;;;;;3.72;1.38;;;;;;;-0.71;100.00;98779.53;5111256;28;20051;-63
2022/03/05 04:38:47;;;;;;;3.38;1.23;;;;;;;-0.64;100.00;98799.88;5111237;28;20059;-63
2022/03/05 04:41:14;;;;;;;2.47;1.55;;;;;;;-0.63;100.00;98804.16;5111407;28;20145;-62
2022/03/05 04:43:40;;;;;;;1.48;1.23;;;;;;;-0.74;100.00;98790.09;5111782;28;20058;-63
2022/03/05 04:46:06;;;;;;;1.52;1.20;;;;;;;-0.73;100.00;98799.78;5111329;28;20047;-63
2022/03/05 04:48:32;;;;;;;2.08;1.20;;;;;;;-0.81;100.00;98793.19;5111527;28;20047;-63
2022/03/05 04:50:59;;;;;;;7.20;1.50;;;;;;;-0.81;100.00;98813.94;5111268;28;20055;-63
2022/03/05 04:53:25;;;;;;;1.83;1.30;;;;;;;-0.81;100.00;98830.88;5111192;28;20055;-63
2022/03/05 04:55:52;;;;;;;2.63;1.45;;;;;;;-0.71;100.00;98827.19;5111401;28;20051;-63
2022/03/05 04:58:18;;;;;;;2.08;1.40;;;;;;;-0.76;100.00;98809.25;5111155;28;20058;-63
2022/03/05 05:00:45;;;;;;;5.93;1.48;;;;;;;-0.75;100.00;98796.59;5111390;28;20134;-63
2022/03/05 05:03:11;;;;;;;1.30;1.20;;;;;;;-0.84;100.00;98806.44;5111052;28;20051;-63
2022/03/05 05:05:37;;;;;;;1.30;1.20;;;;;;;-0.85;100.00;98807.56;5111387;28;20047;-63
2022/03/05 05:08:04;;;;;;;2.95;1.30;;;;;;;-0.89;100.00;98812.75;5110548;28;20051;-63
2022/03/05 05:10:31;;;;;;;4.65;1.40;;;;;;;-0.79;100.00;98811.75;5111436;28;20044;-63
2022/03/05 05:12:58;;;;;;;3.60;1.38;;;;;;;-0.75;100.00;98812.75;5110737;28;20101;-63
2022/03/05 05:15:24;;;;;;;1.60;1.25;;;;;;;-0.76;100.00;98806.56;5111259;28;20048;-62
2022/03/05 05:17:50;;;;;;;4.95;1.60;;;;;;;-0.74;100.00;98825.09;5111132;28;20047;-63
2022/03/05 05:20:17;;;;;;;2.05;1.40;;;;;;;-0.76;100.00;98803.09;5110411;28;20120;-62
2022/03/05 05:22:43;;;;;;;2.88;1.35;;;;;;;-0.68;100.00;98798.88;5110938;28;20104;-62
2022/03/05 05:25:09;;;;;;;2.15;1.33;;;;;;;-0.56;100.00;98802.69;5110993;28;20048;-63
2022/03/05 05:27:36;;;;;;;3.40;1.70;;;;;;;-0.54;100.00;98786.22;5111145;28;20043;-63
2022/03/05 05:30:05;;;;;;;2.95;1.50;;;;;;;-0.67;100.00;98766.25;5111020;28;20415;-63
2022/03/05 05:32:31;;;;;;;1.40;1.30;;;;;;;-0.81;100.00;98758.19;5110778;28;20142;-63
2022/03/05 05:34:57;;;;;;;2.25;1.40;;;;;;;-0.74;100.00;98782.81;5110718;28;20047;-62
2022/03/05 05:37:23;;;;;;;1.52;1.25;;;;;;;-0.67;100.00;98768.97;5110779;28;20047;-62
2022/03/05 05:39:50;;;;;;;4.97;1.45;;;;;;;-0.68;100.00;98753.91;5110855;28;20073;-63
2022/03/05 05:42:16;;;;;;;1.90;1.48;;;;;;;-0.64;100.00;98757.59;5111044;28;20047;-62
2022/03/05 05:44:43;;;;;;;2.78;1.40;;;;;;;-0.53;100.00;98758.19;5110728;28;20134;-63
2022/03/05 05:47:10;;;;;;;6.28;1.48;;;;;;;-0.56;100.00;98759.59;5110551;28;20506;-62
2022/03/05 05:49:36;;;;;;;3.50;1.20;;;;;;;-0.46;100.00;98763.19;5110530;28;20059;-63
2022/03/05 05:52:04;;;;;;;1.75;1.33;;;;;;;-0.50;100.00;98747.63;5110395;28;20058;-62
2022/03/05 05:54:30;;;;;;;5.45;1.15;;;;;;;-0.45;100.00;98743.22;5110409;28;20047;-62
2022/03/05 05:56:56;;;;;;;17.40;3.08;;;;;;;-0.41;100.00;98745.00;5110268;28;20051;-62
2022/03/05 05:59:23;;;;;;;2.95;1.35;;;;;;;-0.39;100.00;98750.09;5110472;28;20503;-63
2022/03/05 06:01:49;;;;;;;2.47;1.40;;;;;;;-0.51;100.00;98739.84;5110228;28;20408;-62
2022/03/05 06:04:16;;;;;;;1.65;1.40;;;;;;;-0.38;100.00;98735.53;5110130;28;20051;-62
2022/03/05 06:06:42;;;;;;;2.40;1.48;;;;;;;-0.29;100.00;98737.19;5109716;28;20078;-62
2022/03/05 06:09:08;;;;;;;1.40;1.27;;;;;;;-0.24;100.00;98730.88;5110569;28;20121;-62
2022/03/05 06:11:35;;;;;;;2.22;1.45;;;;;;;-0.11;100.00;98730.03;5110078;28;20051;-62
2022/03/05 06:14:01;;;;;;;3.40;1.75;;;;;;;-0.13;100.00;98726.88;5110319;28;20055;-62
2022/03/05 06:16:27;;;;;;;2.05;1.77;;;;;;;-0.19;100.00;98730.78;5110095;28;20566;-62
2022/03/05 06:18:54;;;;;;;2.65;1.40;;;;;;;-0.19;100.00;98721.91;5110231;28;20054;-62
2022/03/05 06:21:20;;;;;;;5.35;1.90;;;;;;;-0.21;100.00;98727.59;5110191;28;20499;-62
2022/03/05 06:23:47;;;;;;;2.97;1.67;;;;;;;-0.12;100.00;98738.44;5109812;28;20055;-62
2022/03/05 06:26:13;;;;;;;7.20;2.00;;;;;;;-0.11;100.00;98738.13;5110103;28;20414;-62
2022/03/05 06:28:40;;;;;;;4.00;2.00;;;;;;;-0.03;100.00;98742.00;5109857;28;20044;-63
2022/03/05 06:31:06;;;;;;;3.42;2.20;;;;;;;0.05;100.00;98749.34;5110697;28;20047;-62
2022/03/05 06:33:32;;;;;;;4.35;2.38;;;;;;;0.07;100.00;98747.16;5113129;28;20058;-62
2022/03/05 06:35:59;;;;;;;3.50;1.60;;;;;;;0.15;100.00;98743.72;5113785;28;20417;-62
2022/03/05 06:38:26;;;;;;;2.00;1.80;;;;;;;0.22;100.00;98762.16;5113217;28;20144;-62
2022/03/05 06:40:52;;;;;;;5.30;1.67;;;;;;;0.32;100.00;98761.91;5113520;28;20093;-63
2022/03/05 06:43:19;;;;;;;7.18;2.13;;;;;;;0.39;100.00;98756.88;5113087;28;20059;-63
2022/03/05 06:45:46;;;;;;;1.70;1.40;;;;;;;0.45;100.00;98763.75;5113488;28;20056;-63
2022/03/05 06:48:12;;;;;;;2.50;1.65;;;;;;;0.48;100.00;98773.13;5113469;28;20074;-63
2022/03/05 06:50:38;;;;;;;3.08;1.77;;;;;;;0.52;100.00;98784.09;5113002;28;20108;-63
2022/03/05 06:53:06;;;;;;;3.05;1.70;;;;;;;0.77;100.00;98782.66;5113031;28;20526;-63
2022/03/05 06:55:33;;;;;;;3.45;1.70;;;;;;;0.78;100.00;98795.84;5112815;28;20140;-63
2022/03/05 06:57:59;;;;;;;2.03;1.73;;;;;;;0.93;100.00;98795.47;5113302;28;20047;-63
2022/03/05 07:00:26;;;;;;;3.38;1.60;;;;;;;0.80;100.00;98822.50;5112799;28;20051;-63
2022/03/05 07:02:52;;;;;;;2.50;1.50;;;;;;;0.75;100.00;98815.34;5113039;28;20051;-63
2022/03/05 07:05:18;;;;;;;2.92;1.83;;;;;;;0.79;100.00;98824.41;5112687;28;20055;-63
2022/03/05 07:07:44;;;;;;;2.30;1.83;;;;;;;1.13;100.00;98820.31;5112324;28;20536;-64
2022/03/05 07:10:11;;;;;;;2.03;1.67;;;;;;;1.30;100.00;98847.41;5112693;28;20051;-63
2022/03/05 07:12:39;;;;;;;3.33;2.00;;;;;;;1.74;100.00;98855.69;5112673;28;20047;-63
2022/03/05 07:15:06;;;;;;;1.88;1.55;;;;;;;1.78;100.00;98899.88;5112776;28;20138;-63
2022/03/05 07:17:32;;;;;;;4.53;1.55;;;;;;;2.44;100.00;98907.97;5112436;28;20407;-64
2022/03/05 07:19:59;;;;;;;2.65;1.55;;;;;;;2.65;100.00;98938.69;5112629;28;20047;-64
2022/03/05 07:22:25;;;;;;;5.88;1.98;;;;;;;2.82;100.00;98971.19;5112699;28;20051;-63
2022/03/05 07:24:51;;;;;;;3.45;1.50;;;;;;;3.55;100.00;99005.72;5112932;28;20507;-64
2022/03/05 07:27:17;;;;;;;2.95;1.65;;;;;;;3.97;100.00;99043.91;5112785;28;20208;-64
2022/03/05 07:29:46;;;;;;;1.67;1.40;;;;;;;5.05;100.00;99087.78;5112826;28;20054;-64
2022/03/05 07:32:13;;;;;;;7.13;1.50;;;;;;;5.81;100.00;99143.03;5112559;28;20048;-65
2022/03/05 07:34:39;;;;;;;2.72;1.40;;;;;;;5.51;100.00;99178.44;5113098;28;20059;-65
2022/03/05 07:37:05;;;;;;;1.50;1.40;;;;;;;4.82;100.00;99193.19;5112706;28;20052;-64
2022/03/05 07:39:31;;;;;;;3.22;1.73;;;;;;;4.64;100.00;99180.81;5112739;28;20362;-64
2022/03/05 07:41:58;;;;;;;1.65;1.13;;;;;;;4.21;100.00;99182.53;5112556;28;20055;-64
2022/03/05 07:44:24;;;;;;;1.88;1.10;;;;;;;4.10;100.00;99170.41;5112406;28;20052;-65
2022/03/05 07:46:51;;;;;;;2.15;1.30;;;;;;;4.61;100.00;99168.69;5112702;28;20532;-65
2022/03/05 07:49:17;;;;;;;1.50;1.40;;;;;;;4.77;100.00;99184.47;5112223;28;20051;-65
2022/03/05 07:51:43;;;;;;;4.63;1.67;;;;;;;4.77;100.00;99192.59;5112221;28;20047;-65
2022/03/05 07:54:10;;;;;;;3.75;1.65;;;;;;;5.84;100.00;99197.56;5112098;28;20495;-65
2022/03/05 07:56:37;;;;;;;1.70;1.30;;;;;;;6.41;100.00;99228.78;5112305;28;20044;-66
2022/03/05 07:59:03;;;;;;;1.60;1.17;;;;;;;6.80;100.00;99243.00;5112063;28;20181;-66
2022/03/05 08:01:30;;;;;;;2.28;1.35;;;;;;;7.05;100.00;99255.50;5112379;28;20050;-66
2022/03/05 08:03:57;;;;;;;8.13;1.33;;;;;;;7.10;100.00;99270.03;5111849;28;20047;-65
2022/03/05 08:06:23;;;;;;;3.80;1.23;;;;;;;7.07;99.90;99277.00;5111858;28;20052;-66
2022/03/05 08:08:50;;;;;;;4.70;1.63;;;;;;;6.60;100.00;99278.13;5112260;28;20051;-66
2022/03/05 08:11:16;;;;;;;3.00;1.42;;;;;;;5.86;100.00;99287.81;5111902;28;20101;-66
2022/03/05 08:13:42;;;;;;;5.30;1.80;;;;;;;5.21;100.00;99264.66;5112082;28;20113;-65
2022/03/05 08:16:09;;;;;;;1.50;1.40;;;;;;;5.17;100.00;99244.69;5111677;28;20054;-65
2022/03/05 08:18:35;;;;;;;3.45;1.92;;;;;;;6.19;100.00;99243.56;5111996;28;20052;-65
2022/03/05 08:21:02;;;;;;;3.45;1.60;;;;;;;5.92;100.00;99253.03;5111866;28;20051;-66
2022/03/05 08:23:29;;;;;;;2.58;1.70;;;;;;;5.61;100.00;99248.78;5111815;28;20062;-65
2022/03/05 08:25:55;;;;;;;3.88;2.20;;;;;;;5.49;100.00;99240.50;5111633;28;20051;-65
2022/03/05 08:28:22;;;;;;;4.07;1.88;;;;;;;5.46;100.00;99240.38;5112025;28;20092;-65
2022/03/05 08:30:49;;;;;;;2.25;1.60;;;;;;;5.35;100.00;99238.03;5111681;28;20517;-65
2022/03/05 08:33:17;;;;;;;1.73;1.48;;;;;;;5.28;100.00;99259.50;5112097;28;20059;-65
2022/03/05 08:35:43;;;;;;;1.35;1.25;;;;;;;5.75;100.00;99253.16;5093590;28;20048;-66
2022/03/05 08:38:10;;;;;;;3.35;1.70;;;;;;;5.71;100.00;99252.25;5111424;28;20052;-66
2022/03/05 08:40:36;;;;;;;1.90;1.77;;;;;;;5.94;100.00;99258.97;5111651;28;20062;-66
2022/03/05 08:43:03;;;;;;;3.08;1.55;;;;;;;6.33;100.00;99248.72;5111626;28;20052;-65
2022/03/05 08:45:29;;;;;;;4.32;1.42;;;;;;;6.87;100.00;99270.47;5111391;28;20558;-65
2022/03/05 08:47:56;;;;;;;3.15;1.48;;;;;;;6.91;100.00;99276.84;5111534;28;20098;-66
2022/03/05 08:50:22;;;;;;;2.03;1.50;;;;;;;6.66;100.00;99289.59;5111475;28;20048;-65
2022/03/05 08:52:48;;;;;;;2.65;1.60;;;;;;;7.68;99.67;99276.19;5111311;28;20051;-66
2022/03/05 08:55:17;;;;;;;3.97;1.67;;;;;;;7.06;93.38;99298.00;5110306;28;20507;-65
2022/03/05 08:57:44;;;;;;;1.77;1.38;;;;;;;7.21;98.68;99293.81;5111142;28;20054;-66
2022/03/05 09:00:13;;;;;;;1.75;1.60;;;;;;;7.66;97.25;99292.13;5111654;28;20043;-65
2022/03/05 09:02:39;;;;;;;1.67;1.50;;;;;;;7.66;92.95;99311.22;5111006;28;20043;-66
2022/03/05 09:05:07;;;;;;;1.63;1.40;;;;;;;7.33;95.46;99309.41;5111066;28;20051;-66
2022/03/05 09:07:33;;;;;;;3.47;1.63;;;;;;;7.11;95.17;99309.81;5111107;28;20048;-66
2022/03/05 09:09:59;;;;;;;2.35;1.40;;;;;;;6.62;98.10;99296.03;5111036;28;20429;-66
2022/03/05 09:12:26;;;;;;;2.13;1.60;;;;;;;6.19;100.00;99294.50;5111413;28;20509;-66
2022/03/05 09:14:53;;;;;;;2.47;1.60;;;;;;;5.96;100.00;99294.81;5110947;28;20065;-65
2022/03/05 09:17:19;;;;;;;2.33;1.73;;;;;;;5.63;100.00;99294.66;5111051;28;20430;-65
2022/03/05 09:19:45;;;;;;;6.57;1.77;;;;;;;5.32;100.00;99282.19;5110897;28;20472;-66
2022/03/05 09:22:11;;;;;;;1.75;1.65;;;;;;;5.71;100.00;99277.50;5110822;28;20519;-65
2022/03/05 09:24:38;;;;;;;2.55;1.60;;;;;;;5.59;100.00;99286.38;5110525;28;20051;-65
2022/03/05 09:27:04;;;;;;;1.35;1.25;;;;;;;5.66;100.00;99283.13;5110990;28;20043;-66
2022/03/05 09:29:31;;;;;;;2.92;1.70;;;;;;;5.87;100.00;99280.47;5110982;28;20055;-65
2022/03/05 09:31:58;;;;;;;1.20;1.10;;;;;;;5.52;100.00;99283.38;5110689;28;20134;-65
2022/03/05 09:34:24;;;;;;;1.42;1.15;;;;;;;4.71;100.00;99289.75;5110871;28;20052;-65
2022/03/05 09:36:50;;;;;;;1.65;1.50;;;;;;;4.37;100.00;99288.69;5110652;28;20056;-65
2022/03/05 09:39:17;;;;;;;1.30;1.20;;;;;;;4.01;100.00;99270.00;5110702;28;20051;-65
2022/03/05 09:41:43;;;;;;;2.67;1.55;;;;;;;3.73;100.00;99264.06;5110406;28;20148;-65
2022/03/05 09:44:10;;;;;;;2.08;1.33;;;;;;;3.38;100.00;99258.56;5110730;28;20051;-65
2022/03/05 09:46:37;;;;;;;1.60;1.50;;;;;;;3.01;100.00;99246.34;5110697;28;20058;-64
2022/03/05 09:49:04;;;;;;;1.42;1.20;;;;;;;3.12;100.00;99223.25;5110784;28;20044;-64
2022/03/05 09:51:31;;;;;;;4.68;1.30;;;;;;;3.78;100.00;99209.69;5110378;28;20644;-65
2022/03/05 09:53:57;;;;;;;1.80;1.33;;;;;;;5.07;100.00;99245.84;5110683;28;20058;-65
2022/03/05 09:56:24;;;;;;;1.75;1.15;;;;;;;5.34;100.00;99282.66;5110634;28;20142;-65
2022/03/05 09:58:53;;;;;;;2.58;1.17;;;;;;;5.01;100.00;99290.63;5110530;28;20055;-65
2022/03/05 10:01:19;;;;;;;1.08;1.00;;;;;;;4.58;100.00;99296.16;5110286;28;20048;-65
2022/03/05 10:03:48;;;;;;;1.40;1.30;;;;;;;4.37;100.00;99256.09;5110266;28;20134;-65
2022/03/05 10:06:16;;;;;;;1.48;1.30;;;;;;;4.15;100.00;99226.41;5110091;28;20139;-65
2022/03/05 10:08:42;;;;;;;1.92;1.38;;;;;;;3.88;100.00;99189.59;5109883;28;20052;-65
2022/03/05 10:11:09;;;;;;;1.90;1.52;;;;;;;3.56;100.00;99177.28;5110331;28;20052;-64
2022/03/05 10:13:37;;;;;;;2.58;1.30;;;;;;;3.26;100.00;99179.78;5110147;28;20074;-64
2022/03/05 10:16:04;;;;;;;6.93;1.15;;;;;;;3.04;100.00;99156.31;5110110;28;20058;-65
2022/03/05 10:18:32;;;;;;;9.48;2.10;;;;;;;2.94;100.00;99126.84;5109877;28;20054;-65
2022/03/05 10:21:01;;;;;;;3.28;1.85;;;;;;;2.88;100.00;99120.75;5109774;28;20047;-65
2022/03/05 10:23:30;;;;;;;2.03;1.55;;;;;;;2.94;100.00;99114.09;5110195;28;20484;-64
2022/03/05 10:25:57;;;;;;;1.85;1.73;;;;;;;2.98;100.00;99111.53;5109395;28;20058;-64
2022/03/05 10:28:25;;;;;;;2.13;1.60;;;;;;;3.08;100.00;99108.53;5110065;28;20051;-65
2022/03/05 10:30:53;;;;;;;3.22;1.50;;;;;;;3.11;100.00;99128.78;5109986;28;20149;-64
2022/03/05 10:33:28;;;;;;;1.88;1.50;;;;;;;3.12;100.00;99130.38;5110253;28;20123;-64
2022/03/05 10:35:55;;;;;;;2.72;1.48;;;;;;;3.09;100.00;99131.00;5109765;28;20048;-64
2022/03/05 10:38:22;;;;;;;2.45;1.27;;;;;;;3.00;100.00;99144.50;5110099;28;20513;-64
2022/03/05 10:40:54;;;;;;;3.55;1.48;;;;;;;2.67;100.00;99154.94;5110025;28;20051;-65
2022/03/05 10:43:21;;;;;;;1.50;1.35;;;;;;;2.54;100.00;99138.47;5109768;28;20077;-65
2022/03/05 10:45:50;;;;;;;1.77;1.27;;;;;;;2.73;100.00;99113.88;5109640;28;20058;-64
2022/03/05 10:48:28;;;;;;;6.82;1.48;;;;;;;3.04;100.00;99110.28;5109633;28;20044;-64
2022/03/05 10:50:59;;;;;;;4.20;1.50;;;;;;;3.08;100.00;99126.69;5109876;28;20059;-64
2022/03/05 10:53:38;;;;;;;2.05;1.67;;;;;;;3.10;100.00;99138.00;5110134;28;20612;-64
2022/03/05 10:56:25;;;;;;;1.58;1.48;;;;;;;3.42;100.00;99136.78;5109764;28;20047;-64
2022/03/05 10:59:02;;;;;;;3.45;1.60;;;;;;;3.63;100.00;99143.19;5109779;28;20056;-64
2022/03/05 11:01:29;;;;;;;2.75;1.48;;;;;;;3.83;100.00;99154.47;5109788;28;20419;-65
2022/03/05 11:03:56;;;;;;;2.22;1.30;;;;;;;3.75;100.00;99167.72;5109883;28;20054;-64
2022/03/05 11:06:24;;;;;;;1.73;1.35;;;;;;;3.45;100.00;99183.00;5116011;28;20417;-65
2022/03/05 11:08:52;;;;;;;1.33;1.10;;;;;;;3.25;100.00;99189.81;5130046;28;20761;-64
2022/03/05 11:11:19;;;;;;;5.28;1.50;;;;;;;3.16;100.00;99183.59;5130119;27;20055;-64
2022/03/05 11:13:46;;;;;;;2.83;1.60;;;;;;;2.96;100.00;99189.59;5130377;28;20065;-64
2022/03/05 11:16:13;;;;;;;1.88;1.40;;;;;;;3.12;100.00;99179.91;5130069;27;20508;-64
2022/03/05 11:18:40;;;;;;;1.75;1.30;;;;;;;3.35;100.00;99174.41;5133071;28;20140;-64
2022/03/05 11:21:07;;;;;;;1.60;1.20;;;;;;;3.41;100.00;99194.81;5133608;28;20095;-64
2022/03/05 11:23:35;;;;;;;1.25;1.15;;;;;;;3.43;100.00;99203.41;5133162;28;20054;-64
2022/03/05 11:26:04;;;;;;;1.33;1.23;;;;;;;3.72;100.00;99197.38;5133529;28;20089;-64
2022/03/05 11:28:35;;;;;;;1.20;1.10;;;;;;;3.78;100.00;99193.41;5132938;28;20050;-64
2022/03/05 11:31:05;;;;;;;1.92;1.50;;;;;;;3.74;100.00;99185.13;5133504;28;20047;-64